sensor_id;sensor_type;location;lat;lon;timestamp;P1;durP1;ratioP1;P2;durP2;ratioP2
22070;SDS011;11200;51.488;6.668;2023-07-24T00:02:25;2.10;;;1.90;;
22070;SDS011;11200;51.488;6.668;2023-07-24T00:04:51;2.58;;;2.30;;
22070;SDS011;11200;51.488;6.668;2023-07-24T00:07:16;2.05;;;1.73;;
22070;SDS011;11200;51.488;6.668;2023-07-24T00:09:42;2.28;;;1.83;;
22070;SDS011;11200;51.488;6.668;2023-07-24T00:12:08;3.55;;;2.10;;
22070;SDS011;11200;51.488;6.668;2023-07-24T00:14:33;2.10;;;1.80;;
22070;SDS011;11200;51.488;6.668;2023-07-24T00:16:59;2.00;;;1.90;;
22070;SDS011;11200;51.488;6.668;2023-07-24T00:19:25;2.20;;;2.00;;
22070;SDS011;11200;51.488;6.668;2023-07-24T00:21:51;2.17;;;1.98;;
22070;SDS011;11200;51.488;6.668;2023-07-24T00:24:16;1.95;;;1.80;;
22070;SDS011;11200;51.488;6.668;2023-07-24T00:26:42;1.92;;;1.80;;
22070;SDS011;11200;51.488;6.668;2023-07-24T00:29:08;1.85;;;1.75;;
22070;SDS011;11200;51.488;6.668;2023-07-24T00:31:33;1.92;;;1.80;;
22070;SDS011;11200;51.488;6.668;2023-07-24T00:33:59;2.17;;;1.98;;
22070;SDS011;11200;51.488;6.668;2023-07-24T00:36:25;2.42;;;2.05;;
22070;SDS011;11200;51.488;6.668;2023-07-24T00:38:51;2.78;;;1.90;;
22070;SDS011;11200;51.488;6.668;2023-07-24T00:41:17;2.22;;;2.03;;
22070;SDS011;11200;51.488;6.668;2023-07-24T00:43:43;2.30;;;2.10;;
22070;SDS011;11200;51.488;6.668;2023-07-24T00:46:09;2.70;;;1.98;;
22070;SDS011;11200;51.488;6.668;2023-07-24T00:48:36;2.20;;;1.88;;
22070;SDS011;11200;51.488;6.668;2023-07-24T00:51:02;2.08;;;1.85;;
22070;SDS011;11200;51.488;6.668;2023-07-24T00:53:28;1.95;;;1.70;;
22070;SDS011;11200;51.488;6.668;2023-07-24T00:55:54;2.20;;;2.00;;
22070;SDS011;11200;51.488;6.668;2023-07-24T00:58:20;2.10;;;1.90;;
22070;SDS011;11200;51.488;6.668;2023-07-24T01:00:47;2.13;;;1.90;;
22070;SDS011;11200;51.488;6.668;2023-07-24T01:03:13;2.17;;;1.92;;
22070;SDS011;11200;51.488;6.668;2023-07-24T01:05:39;2.15;;;1.95;;
22070;SDS011;11200;51.488;6.668;2023-07-24T01:08:06;2.63;;;2.40;;
22070;SDS011;11200;51.488;6.668;2023-07-24T01:10:32;2.22;;;2.03;;
22070;SDS011;11200;51.488;6.668;2023-07-24T01:13:20;2.10;;;1.90;;
22070;SDS011;11200;51.488;6.668;2023-07-24T01:15:56;2.35;;;2.08;;
22070;SDS011;11200;51.488;6.668;2023-07-24T01:18:29;2.25;;;1.90;;
22070;SDS011;11200;51.488;6.668;2023-07-24T01:20:56;2.03;;;1.92;;
22070;SDS011;11200;51.488;6.668;2023-07-24T01:26:12;2.53;;;2.00;;
22070;SDS011;11200;51.488;6.668;2023-07-24T01:28:38;2.30;;;2.00;;
22070;SDS011;11200;51.488;6.668;2023-07-24T01:31:04;2.20;;;2.00;;
22070;SDS011;11200;51.488;6.668;2023-07-24T01:33:30;2.10;;;1.90;;
22070;SDS011;11200;51.488;6.668;2023-07-24T01:35:59;2.33;;;2.10;;
22070;SDS011;11200;51.488;6.668;2023-07-24T01:38:27;2.28;;;2.08;;
22070;SDS011;11200;51.488;6.668;2023-07-24T01:40:55;2.33;;;2.13;;
22070;SDS011;11200;51.488;6.668;2023-07-24T01:43:22;2.15;;;1.95;;
22070;SDS011;11200;51.488;6.668;2023-07-24T01:45:51;2.05;;;1.85;;
22070;SDS011;11200;51.488;6.668;2023-07-24T01:48:16;2.30;;;2.10;;
22070;SDS011;11200;51.488;6.668;2023-07-24T01:50:42;2.20;;;2.00;;
22070;SDS011;11200;51.488;6.668;2023-07-24T01:53:08;2.40;;;2.20;;
22070;SDS011;11200;51.488;6.668;2023-07-24T01:55:34;1.98;;;1.88;;
22070;SDS011;11200;51.488;6.668;2023-07-24T01:58:00;2.30;;;2.00;;
22070;SDS011;11200;51.488;6.668;2023-07-24T02:00:26;2.45;;;2.13;;
22070;SDS011;11200;51.488;6.668;2023-07-24T02:02:51;2.35;;;2.15;;
22070;SDS011;11200;51.488;6.668;2023-07-24T02:05:17;3.67;;;2.10;;
22070;SDS011;11200;51.488;6.668;2023-07-24T02:07:43;2.30;;;2.10;;
22070;SDS011;11200;51.488;6.668;2023-07-24T02:10:08;2.45;;;2.25;;
22070;SDS011;11200;51.488;6.668;2023-07-24T02:12:34;2.40;;;2.20;;
22070;SDS011;11200;51.488;6.668;2023-07-24T02:15:00;2.25;;;2.05;;
22070;SDS011;11200;51.488;6.668;2023-07-24T02:17:26;2.60;;;2.35;;
22070;SDS011;11200;51.488;6.668;2023-07-24T02:19:52;2.67;;;2.30;;
22070;SDS011;11200;51.488;6.668;2023-07-24T02:22:18;3.20;;;2.33;;
22070;SDS011;11200;51.488;6.668;2023-07-24T02:24:43;2.40;;;2.20;;
22070;SDS011;11200;51.488;6.668;2023-07-24T02:27:12;2.53;;;2.20;;
22070;SDS011;11200;51.488;6.668;2023-07-24T02:29:41;2.30;;;2.10;;
22070;SDS011;11200;51.488;6.668;2023-07-24T02:32:06;3.15;;;2.42;;
22070;SDS011;11200;51.488;6.668;2023-07-24T02:34:33;2.42;;;2.22;;
22070;SDS011;11200;51.488;6.668;2023-07-24T02:36:59;2.47;;;2.13;;
22070;SDS011;11200;51.488;6.668;2023-07-24T02:39:25;3.13;;;2.30;;
22070;SDS011;11200;51.488;6.668;2023-07-24T02:41:50;3.22;;;2.42;;
22070;SDS011;11200;51.488;6.668;2023-07-24T02:44:17;2.30;;;2.10;;
22070;SDS011;11200;51.488;6.668;2023-07-24T02:46:42;2.63;;;2.40;;
22070;SDS011;11200;51.488;6.668;2023-07-24T02:49:08;2.50;;;2.30;;
22070;SDS011;11200;51.488;6.668;2023-07-24T02:51:34;3.08;;;2.17;;
22070;SDS011;11200;51.488;6.668;2023-07-24T02:53:59;3.20;;;2.40;;
22070;SDS011;11200;51.488;6.668;2023-07-24T02:56:25;2.78;;;2.53;;
22070;SDS011;11200;51.488;6.668;2023-07-24T02:58:51;2.75;;;2.13;;
22070;SDS011;11200;51.488;6.668;2023-07-24T03:01:16;2.55;;;2.08;;
22070;SDS011;11200;51.488;6.668;2023-07-24T03:03:42;2.42;;;2.22;;
22070;SDS011;11200;51.488;6.668;2023-07-24T03:06:08;2.97;;;2.47;;
22070;SDS011;11200;51.488;6.668;2023-07-24T03:08:33;2.38;;;2.13;;
22070;SDS011;11200;51.488;6.668;2023-07-24T03:10:59;2.40;;;2.20;;
22070;SDS011;11200;51.488;6.668;2023-07-24T03:13:27;2.53;;;2.30;;
22070;SDS011;11200;51.488;6.668;2023-07-24T03:15:53;3.17;;;2.50;;
22070;SDS011;11200;51.488;6.668;2023-07-24T03:18:20;3.25;;;2.58;;
22070;SDS011;11200;51.488;6.668;2023-07-24T03:20:46;3.22;;;2.65;;
22070;SDS011;11200;51.488;6.668;2023-07-24T03:23:12;2.80;;;2.38;;
22070;SDS011;11200;51.488;6.668;2023-07-24T03:25:38;3.15;;;2.47;;
22070;SDS011;11200;51.488;6.668;2023-07-24T03:28:04;3.50;;;2.60;;
22070;SDS011;11200;51.488;6.668;2023-07-24T03:30:29;5.15;;;2.55;;
22070;SDS011;11200;51.488;6.668;2023-07-24T03:32:55;2.97;;;2.47;;
22070;SDS011;11200;51.488;6.668;2023-07-24T03:35:21;3.25;;;2.50;;
22070;SDS011;11200;51.488;6.668;2023-07-24T03:37:47;2.80;;;2.50;;
22070;SDS011;11200;51.488;6.668;2023-07-24T03:40:12;2.70;;;2.33;;
22070;SDS011;11200;51.488;6.668;2023-07-24T03:42:38;3.28;;;2.60;;
22070;SDS011;11200;51.488;6.668;2023-07-24T03:45:04;3.72;;;2.55;;
22070;SDS011;11200;51.488;6.668;2023-07-24T03:47:31;3.15;;;2.60;;
22070;SDS011;11200;51.488;6.668;2023-07-24T03:49:57;3.42;;;2.75;;
22070;SDS011;11200;51.488;6.668;2023-07-24T03:52:22;3.25;;;2.47;;
22070;SDS011;11200;51.488;6.668;2023-07-24T03:54:48;3.38;;;2.72;;
22070;SDS011;11200;51.488;6.668;2023-07-24T03:57:14;3.00;;;2.60;;
22070;SDS011;11200;51.488;6.668;2023-07-24T03:59:39;3.53;;;2.58;;
22070;SDS011;11200;51.488;6.668;2023-07-24T04:02:05;2.83;;;2.58;;
22070;SDS011;11200;51.488;6.668;2023-07-24T04:04:31;3.17;;;2.58;;
22070;SDS011;11200;51.488;6.668;2023-07-24T04:06:58;3.47;;;2.90;;
22070;SDS011;11200;51.488;6.668;2023-07-24T04:09:23;3.47;;;2.80;;
22070;SDS011;11200;51.488;6.668;2023-07-24T04:11:49;3.13;;;2.83;;
22070;SDS011;11200;51.488;6.668;2023-07-24T04:14:15;3.55;;;2.80;;
22070;SDS011;11200;51.488;6.668;2023-07-24T04:16:41;3.38;;;2.50;;
22070;SDS011;11200;51.488;6.668;2023-07-24T04:19:06;3.95;;;2.60;;
22070;SDS011;11200;51.488;6.668;2023-07-24T04:21:33;3.13;;;2.80;;
22070;SDS011;11200;51.488;6.668;2023-07-24T04:24:00;2.88;;;2.50;;
22070;SDS011;11200;51.488;6.668;2023-07-24T04:26:26;3.42;;;3.00;;
22070;SDS011;11200;51.488;6.668;2023-07-24T04:28:52;5.22;;;2.90;;
22070;SDS011;11200;51.488;6.668;2023-07-24T04:31:17;6.30;;;2.75;;
22070;SDS011;11200;51.488;6.668;2023-07-24T04:33:43;3.03;;;2.70;;
22070;SDS011;11200;51.488;6.668;2023-07-24T04:36:09;3.05;;;2.60;;
22070;SDS011;11200;51.488;6.668;2023-07-24T04:38:34;4.43;;;3.38;;
22070;SDS011;11200;51.488;6.668;2023-07-24T04:41:00;2.92;;;2.63;;
22070;SDS011;11200;51.488;6.668;2023-07-24T04:43:27;3.95;;;2.95;;
22070;SDS011;11200;51.488;6.668;2023-07-24T04:45:53;3.97;;;3.05;;
22070;SDS011;11200;51.488;6.668;2023-07-24T04:48:18;3.20;;;2.85;;
22070;SDS011;11200;51.488;6.668;2023-07-24T04:50:44;4.05;;;3.00;;
22070;SDS011;11200;51.488;6.668;2023-07-24T04:53:10;3.35;;;2.88;;
22070;SDS011;11200;51.488;6.668;2023-07-24T04:55:35;4.40;;;3.10;;
22070;SDS011;11200;51.488;6.668;2023-07-24T04:58:01;3.75;;;3.05;;
22070;SDS011;11200;51.488;6.668;2023-07-24T05:00:27;3.47;;;3.00;;
22070;SDS011;11200;51.488;6.668;2023-07-24T05:02:53;3.15;;;2.72;;
22070;SDS011;11200;51.488;6.668;2023-07-24T05:05:18;4.13;;;2.85;;
22070;SDS011;11200;51.488;6.668;2023-07-24T05:07:44;4.03;;;3.00;;
22070;SDS011;11200;51.488;6.668;2023-07-24T05:10:10;4.00;;;3.00;;
22070;SDS011;11200;51.488;6.668;2023-07-24T05:12:36;4.03;;;3.05;;
22070;SDS011;11200;51.488;6.668;2023-07-24T05:15:01;5.55;;;3.10;;
22070;SDS011;11200;51.488;6.668;2023-07-24T05:17:27;4.65;;;3.30;;
22070;SDS011;11200;51.488;6.668;2023-07-24T05:19:53;3.55;;;3.05;;
22070;SDS011;11200;51.488;6.668;2023-07-24T05:22:19;3.40;;;3.10;;
22070;SDS011;11200;51.488;6.668;2023-07-24T05:24:44;4.47;;;3.40;;
22070;SDS011;11200;51.488;6.668;2023-07-24T05:27:10;3.40;;;2.85;;
22070;SDS011;11200;51.488;6.668;2023-07-24T05:29:37;4.93;;;2.85;;
22070;SDS011;11200;51.488;6.668;2023-07-24T05:32:03;4.68;;;3.35;;
22070;SDS011;11200;51.488;6.668;2023-07-24T05:34:29;3.88;;;3.00;;
22070;SDS011;11200;51.488;6.668;2023-07-24T05:36:54;5.28;;;3.45;;
22070;SDS011;11200;51.488;6.668;2023-07-24T05:39:20;4.13;;;3.40;;
22070;SDS011;11200;51.488;6.668;2023-07-24T05:41:47;2.92;;;2.58;;
22070;SDS011;11200;51.488;6.668;2023-07-24T05:44:13;3.97;;;2.80;;
22070;SDS011;11200;51.488;6.668;2023-07-24T05:46:39;4.05;;;3.10;;
22070;SDS011;11200;51.488;6.668;2023-07-24T05:49:04;4.20;;;2.83;;
22070;SDS011;11200;51.488;6.668;2023-07-24T05:51:30;3.83;;;3.10;;
22070;SDS011;11200;51.488;6.668;2023-07-24T05:53:56;4.07;;;3.28;;
22070;SDS011;11200;51.488;6.668;2023-07-24T05:56:21;3.40;;;3.03;;
22070;SDS011;11200;51.488;6.668;2023-07-24T05:58:47;3.35;;;2.80;;
22070;SDS011;11200;51.488;6.668;2023-07-24T06:01:12;4.18;;;3.60;;
22070;SDS011;11200;51.488;6.668;2023-07-24T06:03:39;4.68;;;3.60;;
22070;SDS011;11200;51.488;6.668;2023-07-24T06:06:04;3.83;;;3.40;;
22070;SDS011;11200;51.488;6.668;2023-07-24T06:08:30;3.47;;;3.00;;
22070;SDS011;11200;51.488;6.668;2023-07-24T06:10:55;3.83;;;3.00;;
22070;SDS011;11200;51.488;6.668;2023-07-24T06:13:21;4.43;;;3.38;;
22070;SDS011;11200;51.488;6.668;2023-07-24T06:15:47;4.45;;;3.25;;
22070;SDS011;11200;51.488;6.668;2023-07-24T06:18:13;3.72;;;3.33;;
22070;SDS011;11200;51.488;6.668;2023-07-24T06:20:39;3.70;;;3.05;;
22070;SDS011;11200;51.488;6.668;2023-07-24T06:23:05;4.07;;;3.20;;
22070;SDS011;11200;51.488;6.668;2023-07-24T06:25:31;3.65;;;3.25;;
22070;SDS011;11200;51.488;6.668;2023-07-24T06:27:58;3.88;;;3.20;;
22070;SDS011;11200;51.488;6.668;2023-07-24T06:30:24;3.58;;;3.20;;
22070;SDS011;11200;51.488;6.668;2023-07-24T06:32:49;3.95;;;3.33;;
22070;SDS011;11200;51.488;6.668;2023-07-24T06:35:15;4.55;;;3.30;;
22070;SDS011;11200;51.488;6.668;2023-07-24T06:37:41;4.05;;;3.33;;
22070;SDS011;11200;51.488;6.668;2023-07-24T06:40:07;3.47;;;3.17;;
22070;SDS011;11200;51.488;6.668;2023-07-24T06:42:33;3.88;;;2.90;;
22070;SDS011;11200;51.488;6.668;2023-07-24T06:44:59;3.33;;;3.03;;
22070;SDS011;11200;51.488;6.668;2023-07-24T06:47:24;3.53;;;2.97;;
22070;SDS011;11200;51.488;6.668;2023-07-24T06:49:50;4.68;;;3.00;;
22070;SDS011;11200;51.488;6.668;2023-07-24T06:52:16;3.53;;;2.72;;
22070;SDS011;11200;51.488;6.668;2023-07-24T06:54:42;3.22;;;2.72;;
22070;SDS011;11200;51.488;6.668;2023-07-24T06:57:08;3.47;;;2.90;;
22070;SDS011;11200;51.488;6.668;2023-07-24T06:59:34;2.60;;;2.40;;
22070;SDS011;11200;51.488;6.668;2023-07-24T07:01:59;3.15;;;2.45;;
22070;SDS011;11200;51.488;6.668;2023-07-24T07:04:25;3.53;;;2.40;;
22070;SDS011;11200;51.488;6.668;2023-07-24T07:06:50;3.28;;;2.53;;
22070;SDS011;11200;51.488;6.668;2023-07-24T07:09:16;2.92;;;2.40;;
22070;SDS011;11200;51.488;6.668;2023-07-24T07:11:42;3.85;;;2.47;;
22070;SDS011;11200;51.488;6.668;2023-07-24T07:14:08;3.00;;;2.70;;
22070;SDS011;11200;51.488;6.668;2023-07-24T07:16:34;3.97;;;2.40;;
22070;SDS011;11200;51.488;6.668;2023-07-24T07:19:00;2.80;;;2.50;;
22070;SDS011;11200;51.488;6.668;2023-07-24T07:21:25;3.25;;;2.45;;
22070;SDS011;11200;51.488;6.668;2023-07-24T07:23:51;2.50;;;2.30;;
22070;SDS011;11200;51.488;6.668;2023-07-24T07:26:17;2.85;;;2.50;;
22070;SDS011;11200;51.488;6.668;2023-07-24T07:28:42;3.28;;;2.25;;
22070;SDS011;11200;51.488;6.668;2023-07-24T07:31:10;2.80;;;2.50;;
22070;SDS011;11200;51.488;6.668;2023-07-24T07:33:35;2.50;;;2.30;;
22070;SDS011;11200;51.488;6.668;2023-07-24T07:36:01;2.42;;;2.22;;
22070;SDS011;11200;51.488;6.668;2023-07-24T07:38:28;2.80;;;2.08;;
22070;SDS011;11200;51.488;6.668;2023-07-24T07:40:54;2.72;;;2.20;;
22070;SDS011;11200;51.488;6.668;2023-07-24T07:43:20;3.25;;;2.40;;
22070;SDS011;11200;51.488;6.668;2023-07-24T07:45:46;2.72;;;1.90;;
22070;SDS011;11200;51.488;6.668;2023-07-24T07:48:12;2.30;;;2.10;;
22070;SDS011;11200;51.488;6.668;2023-07-24T07:50:38;2.15;;;1.95;;
22070;SDS011;11200;51.488;6.668;2023-07-24T07:53:04;3.53;;;2.20;;
22070;SDS011;11200;51.488;6.668;2023-07-24T07:55:29;2.75;;;2.10;;
22070;SDS011;11200;51.488;6.668;2023-07-24T07:57:55;2.72;;;2.20;;
22070;SDS011;11200;51.488;6.668;2023-07-24T08:00:20;2.00;;;1.80;;
22070;SDS011;11200;51.488;6.668;2023-07-24T08:02:47;2.25;;;2.00;;
22070;SDS011;11200;51.488;6.668;2023-07-24T08:05:12;2.35;;;2.10;;
22070;SDS011;11200;51.488;6.668;2023-07-24T08:07:38;2.72;;;2.13;;
22070;SDS011;11200;51.488;6.668;2023-07-24T08:10:03;2.10;;;1.92;;
22070;SDS011;11200;51.488;6.668;2023-07-24T08:12:29;1.70;;;1.60;;
22070;SDS011;11200;51.488;6.668;2023-07-24T08:14:55;2.08;;;1.88;;
22070;SDS011;11200;51.488;6.668;2023-07-24T08:17:21;1.90;;;1.80;;
22070;SDS011;11200;51.488;6.668;2023-07-24T08:19:47;2.03;;;1.75;;
22070;SDS011;11200;51.488;6.668;2023-07-24T08:22:13;2.47;;;2.15;;
22070;SDS011;11200;51.488;6.668;2023-07-24T08:24:38;1.90;;;1.80;;
22070;SDS011;11200;51.488;6.668;2023-07-24T08:27:04;2.03;;;1.83;;
22070;SDS011;11200;51.488;6.668;2023-07-24T08:29:30;2.30;;;1.92;;
22070;SDS011;11200;51.488;6.668;2023-07-24T08:31:55;1.70;;;1.60;;
22070;SDS011;11200;51.488;6.668;2023-07-24T08:34:21;2.88;;;1.75;;
22070;SDS011;11200;51.488;6.668;2023-07-24T08:36:47;1.98;;;1.83;;
22070;SDS011;11200;51.488;6.668;2023-07-24T08:39:12;1.70;;;1.60;;
22070;SDS011;11200;51.488;6.668;2023-07-24T08:41:38;1.67;;;1.58;;
22070;SDS011;11200;51.488;6.668;2023-07-24T08:44:07;2.67;;;1.70;;
22070;SDS011;11200;51.488;6.668;2023-07-24T08:46:37;1.70;;;1.48;;
22070;SDS011;11200;51.488;6.668;2023-07-24T08:49:06;1.70;;;1.60;;
22070;SDS011;11200;51.488;6.668;2023-07-24T08:51:39;1.55;;;1.40;;
22070;SDS011;11200;51.488;6.668;2023-07-24T08:54:08;1.58;;;1.30;;
22070;SDS011;11200;51.488;6.668;2023-07-24T08:56:38;1.63;;;1.45;;
22070;SDS011;11200;51.488;6.668;2023-07-24T08:59:12;1.65;;;1.55;;
22070;SDS011;11200;51.488;6.668;2023-07-24T09:01:37;1.90;;;1.60;;
22070;SDS011;11200;51.488;6.668;2023-07-24T09:04:03;1.80;;;1.30;;
22070;SDS011;11200;51.488;6.668;2023-07-24T09:06:29;1.67;;;1.33;;
22070;SDS011;11200;51.488;6.668;2023-07-24T09:08:54;1.50;;;1.40;;
22070;SDS011;11200;51.488;6.668;2023-07-24T09:11:20;1.75;;;1.30;;
22070;SDS011;11200;51.488;6.668;2023-07-24T09:13:46;1.65;;;1.40;;
22070;SDS011;11200;51.488;6.668;2023-07-24T09:16:22;1.50;;;1.40;;
22070;SDS011;11200;51.488;6.668;2023-07-24T09:18:48;1.58;;;1.40;;
22070;SDS011;11200;51.488;6.668;2023-07-24T09:21:26;2.55;;;1.25;;
22070;SDS011;11200;51.488;6.668;2023-07-24T09:23:53;1.55;;;1.45;;
22070;SDS011;11200;51.488;6.668;2023-07-24T09:26:20;1.48;;;1.30;;
22070;SDS011;11200;51.488;6.668;2023-07-24T09:28:52;1.50;;;1.35;;
22070;SDS011;11200;51.488;6.668;2023-07-24T09:31:21;1.50;;;1.40;;
22070;SDS011;11200;51.488;6.668;2023-07-24T09:33:58;1.60;;;1.50;;
22070;SDS011;11200;51.488;6.668;2023-07-24T09:36:24;1.33;;;1.20;;
22070;SDS011;11200;51.488;6.668;2023-07-24T09:38:59;3.10;;;1.48;;
22070;SDS011;11200;51.488;6.668;2023-07-24T09:41:28;1.73;;;1.40;;
22070;SDS011;11200;51.488;6.668;2023-07-24T09:43:57;1.25;;;1.15;;
22070;SDS011;11200;51.488;6.668;2023-07-24T09:46:23;1.15;;;1.10;;
22070;SDS011;11200;51.488;6.668;2023-07-24T09:48:49;1.90;;;1.60;;
22070;SDS011;11200;51.488;6.668;2023-07-24T09:51:16;1.52;;;1.30;;
22070;SDS011;11200;51.488;6.668;2023-07-24T09:53:43;1.52;;;1.42;;
22070;SDS011;11200;51.488;6.668;2023-07-24T09:56:13;1.33;;;1.20;;
22070;SDS011;11200;51.488;6.668;2023-07-24T09:58:40;1.35;;;1.25;;
22070;SDS011;11200;51.488;6.668;2023-07-24T10:01:09;1.30;;;1.20;;
22070;SDS011;11200;51.488;6.668;2023-07-24T10:03:39;1.55;;;1.45;;
22070;SDS011;11200;51.488;6.668;2023-07-24T10:06:10;1.45;;;1.15;;
22070;SDS011;11200;51.488;6.668;2023-07-24T10:08:36;1.42;;;1.33;;
22070;SDS011;11200;51.488;6.668;2023-07-24T10:11:04;1.23;;;1.13;;
22070;SDS011;11200;51.488;6.668;2023-07-24T10:13:30;1.80;;;1.30;;
22070;SDS011;11200;51.488;6.668;2023-07-24T10:15:56;1.85;;;1.10;;
22070;SDS011;11200;51.488;6.668;2023-07-24T10:18:26;1.50;;;1.40;;
22070;SDS011;11200;51.488;6.668;2023-07-24T10:21:00;1.20;;;1.10;;
22070;SDS011;11200;51.488;6.668;2023-07-24T10:23:27;1.40;;;1.30;;
22070;SDS011;11200;51.488;6.668;2023-07-24T10:25:52;1.60;;;1.50;;
22070;SDS011;11200;51.488;6.668;2023-07-24T10:28:18;1.50;;;1.40;;
22070;SDS011;11200;51.488;6.668;2023-07-24T10:30:44;1.50;;;1.00;;
22070;SDS011;11200;51.488;6.668;2023-07-24T10:33:16;1.42;;;1.33;;
22070;SDS011;11200;51.488;6.668;2023-07-24T10:35:52;1.30;;;1.20;;
22070;SDS011;11200;51.488;6.668;2023-07-24T10:38:19;1.35;;;1.17;;
22070;SDS011;11200;51.488;6.668;2023-07-24T10:40:45;1.52;;;1.30;;
22070;SDS011;11200;51.488;6.668;2023-07-24T10:43:17;1.50;;;1.40;;
22070;SDS011;11200;51.488;6.668;2023-07-24T10:45:51;1.30;;;1.20;;
22070;SDS011;11200;51.488;6.668;2023-07-24T10:48:18;1.45;;;1.35;;
22070;SDS011;11200;51.488;6.668;2023-07-24T10:50:46;1.30;;;1.20;;
22070;SDS011;11200;51.488;6.668;2023-07-24T10:53:16;1.42;;;1.30;;
22070;SDS011;11200;51.488;6.668;2023-07-24T10:55:44;1.45;;;1.23;;
22070;SDS011;11200;51.488;6.668;2023-07-24T10:58:11;1.30;;;1.20;;
22070;SDS011;11200;51.488;6.668;2023-07-24T11:00:40;1.50;;;1.40;;
22070;SDS011;11200;51.488;6.668;2023-07-24T11:03:13;1.55;;;1.40;;
22070;SDS011;11200;51.488;6.668;2023-07-24T11:05:40;1.60;;;1.40;;
22070;SDS011;11200;51.488;6.668;2023-07-24T11:08:13;1.65;;;1.40;;
22070;SDS011;11200;51.488;6.668;2023-07-24T11:10:47;1.85;;;1.10;;
22070;SDS011;11200;51.488;6.668;2023-07-24T11:13:23;2.17;;;1.40;;
22070;SDS011;11200;51.488;6.668;2023-07-24T11:15:50;1.27;;;1.17;;
22070;SDS011;11200;51.488;6.668;2023-07-24T11:18:17;1.65;;;1.23;;
22070;SDS011;11200;51.488;6.668;2023-07-24T11:20:49;1.30;;;1.20;;
22070;SDS011;11200;51.488;6.668;2023-07-24T11:23:19;1.20;;;1.10;;
22070;SDS011;11200;51.488;6.668;2023-07-24T11:25:45;1.48;;;1.33;;
22070;SDS011;11200;51.488;6.668;2023-07-24T11:28:12;1.48;;;1.35;;
22070;SDS011;11200;51.488;6.668;2023-07-24T11:30:39;1.50;;;1.40;;
22070;SDS011;11200;51.488;6.668;2023-07-24T11:33:06;2.38;;;1.70;;
22070;SDS011;11200;51.488;6.668;2023-07-24T11:35:36;1.55;;;1.40;;
22070;SDS011;11200;51.488;6.668;2023-07-24T11:38:04;1.70;;;1.60;;
22070;SDS011;11200;51.488;6.668;2023-07-24T11:40:31;2.55;;;1.80;;
22070;SDS011;11200;51.488;6.668;2023-07-24T11:42:59;1.38;;;1.27;;
22070;SDS011;11200;51.488;6.668;2023-07-24T11:45:24;1.85;;;1.50;;
22070;SDS011;11200;51.488;6.668;2023-07-24T11:47:50;2.05;;;1.58;;
22070;SDS011;11200;51.488;6.668;2023-07-24T11:50:18;2.45;;;1.40;;
22070;SDS011;11200;51.488;6.668;2023-07-24T11:52:45;1.60;;;1.50;;
22070;SDS011;11200;51.488;6.668;2023-07-24T11:55:14;1.75;;;1.50;;
22070;SDS011;11200;51.488;6.668;2023-07-24T12:00:39;1.40;;;1.30;;
22070;SDS011;11200;51.488;6.668;2023-07-24T12:03:04;1.70;;;1.60;;
22070;SDS011;11200;51.488;6.668;2023-07-24T12:05:39;1.55;;;1.35;;
22070;SDS011;11200;51.488;6.668;2023-07-24T12:08:06;1.70;;;1.60;;
22070;SDS011;11200;51.488;6.668;2023-07-24T12:10:35;2.33;;;1.40;;
22070;SDS011;11200;51.488;6.668;2023-07-24T12:13:02;1.60;;;1.40;;
22070;SDS011;11200;51.488;6.668;2023-07-24T12:15:27;1.83;;;1.60;;
22070;SDS011;11200;51.488;6.668;2023-07-24T12:17:53;1.88;;;1.70;;
22070;SDS011;11200;51.488;6.668;2023-07-24T12:20:19;1.75;;;1.50;;
22070;SDS011;11200;51.488;6.668;2023-07-24T12:22:45;1.60;;;1.50;;
22070;SDS011;11200;51.488;6.668;2023-07-24T12:25:12;1.88;;;1.70;;
22070;SDS011;11200;51.488;6.668;2023-07-24T12:27:38;1.90;;;1.52;;
22070;SDS011;11200;51.488;6.668;2023-07-24T12:30:05;2.45;;;1.50;;
22070;SDS011;11200;51.488;6.668;2023-07-24T12:32:31;1.58;;;1.48;;
22070;SDS011;11200;51.488;6.668;2023-07-24T12:34:57;1.80;;;1.30;;
22070;SDS011;11200;51.488;6.668;2023-07-24T12:37:22;1.77;;;1.45;;
22070;SDS011;11200;51.488;6.668;2023-07-24T12:39:48;1.60;;;1.50;;
22070;SDS011;11200;51.488;6.668;2023-07-24T12:42:14;1.42;;;1.33;;
22070;SDS011;11200;51.488;6.668;2023-07-24T12:44:41;1.50;;;1.40;;
22070;SDS011;11200;51.488;6.668;2023-07-24T12:47:07;1.60;;;1.50;;
22070;SDS011;11200;51.488;6.668;2023-07-24T12:49:33;1.63;;;1.40;;
22070;SDS011;11200;51.488;6.668;2023-07-24T12:51:58;1.70;;;1.60;;
22070;SDS011;11200;51.488;6.668;2023-07-24T12:54:24;1.52;;;1.27;;
22070;SDS011;11200;51.488;6.668;2023-07-24T12:56:50;1.55;;;1.45;;
22070;SDS011;11200;51.488;6.668;2023-07-24T12:59:16;1.65;;;1.55;;
22070;SDS011;11200;51.488;6.668;2023-07-24T13:01:43;1.60;;;1.50;;
22070;SDS011;11200;51.488;6.668;2023-07-24T13:04:09;2.38;;;1.60;;
22070;SDS011;11200;51.488;6.668;2023-07-24T13:06:34;1.45;;;1.25;;
22070;SDS011;11200;51.488;6.668;2023-07-24T13:09:00;1.67;;;1.42;;
22070;SDS011;11200;51.488;6.668;2023-07-24T13:11:26;1.55;;;1.45;;
22070;SDS011;11200;51.488;6.668;2023-07-24T13:13:53;1.63;;;1.52;;
22070;SDS011;11200;51.488;6.668;2023-07-24T13:16:19;1.60;;;1.50;;
22070;SDS011;11200;51.488;6.668;2023-07-24T13:18:45;1.73;;;1.63;;
22070;SDS011;11200;51.488;6.668;2023-07-24T13:21:11;2.30;;;1.75;;
22070;SDS011;11200;51.488;6.668;2023-07-24T13:23:37;1.75;;;1.40;;
22070;SDS011;11200;51.488;6.668;2023-07-24T13:26:02;1.58;;;1.48;;
22070;SDS011;11200;51.488;6.668;2023-07-24T13:28:28;1.95;;;1.70;;
22070;SDS011;11200;51.488;6.668;2023-07-24T13:30:54;1.67;;;1.50;;
22070;SDS011;11200;51.488;6.668;2023-07-24T13:33:20;2.15;;;1.88;;
22070;SDS011;11200;51.488;6.668;2023-07-24T13:35:47;1.40;;;1.30;;
22070;SDS011;11200;51.488;6.668;2023-07-24T13:38:13;1.70;;;1.60;;
22070;SDS011;11200;51.488;6.668;2023-07-24T13:40:39;1.50;;;1.40;;
22070;SDS011;11200;51.488;6.668;2023-07-24T13:43:05;1.55;;;1.45;;
22070;SDS011;11200;51.488;6.668;2023-07-24T13:45:31;1.73;;;1.63;;
22070;SDS011;11200;51.488;6.668;2023-07-24T13:47:57;1.60;;;1.50;;
22070;SDS011;11200;51.488;6.668;2023-07-24T13:50:23;1.70;;;1.60;;
22070;SDS011;11200;51.488;6.668;2023-07-24T13:52:49;1.85;;;1.70;;
22070;SDS011;11200;51.488;6.668;2023-07-24T13:55:14;1.63;;;1.52;;
22070;SDS011;11200;51.488;6.668;2023-07-24T13:57:41;1.70;;;1.60;;
22070;SDS011;11200;51.488;6.668;2023-07-24T14:00:06;1.80;;;1.70;;
22070;SDS011;11200;51.488;6.668;2023-07-24T14:02:32;2.20;;;1.70;;
22070;SDS011;11200;51.488;6.668;2023-07-24T14:04:58;1.60;;;1.42;;
22070;SDS011;11200;51.488;6.668;2023-07-24T14:07:24;2.03;;;1.60;;
22070;SDS011;11200;51.488;6.668;2023-07-24T14:09:49;1.63;;;1.52;;
22070;SDS011;11200;51.488;6.668;2023-07-24T14:12:15;1.48;;;1.33;;
22070;SDS011;11200;51.488;6.668;2023-07-24T14:14:41;1.55;;;1.42;;
22070;SDS011;11200;51.488;6.668;2023-07-24T14:17:07;1.50;;;1.40;;
22070;SDS011;11200;51.488;6.668;2023-07-24T14:19:33;2.10;;;1.60;;
22070;SDS011;11200;51.488;6.668;2023-07-24T14:21:58;1.52;;;1.42;;
22070;SDS011;11200;51.488;6.668;2023-07-24T14:24:24;1.98;;;1.77;;
22070;SDS011;11200;51.488;6.668;2023-07-24T14:26:50;1.65;;;1.55;;
22070;SDS011;11200;51.488;6.668;2023-07-24T14:29:16;1.73;;;1.60;;
22070;SDS011;11200;51.488;6.668;2023-07-24T14:31:42;2.28;;;1.65;;
22070;SDS011;11200;51.488;6.668;2023-07-24T14:34:09;1.98;;;1.77;;
22070;SDS011;11200;51.488;6.668;2023-07-24T14:36:37;2.08;;;1.88;;
22070;SDS011;11200;51.488;6.668;2023-07-24T14:39:03;1.80;;;1.50;;
22070;SDS011;11200;51.488;6.668;2023-07-24T14:41:29;1.80;;;1.70;;
22070;SDS011;11200;51.488;6.668;2023-07-24T14:43:55;1.70;;;1.60;;
22070;SDS011;11200;51.488;6.668;2023-07-24T14:46:21;2.83;;;1.63;;
22070;SDS011;11200;51.488;6.668;2023-07-24T14:48:47;2.00;;;1.80;;
22070;SDS011;11200;51.488;6.668;2023-07-24T14:51:13;2.35;;;1.83;;